DW6536 Weather Reports


time (UTC)temp
F
wind
direction
speed
knots
gust
knots
rain 1hr
in
rain 24hr
in
rain mn
in
humidity
%
barometer
mb
20220930154600 72 12 0.0 0.0 0.00 0.00 0.00 40 1017.3
20220930153043 72 29 0.0 0.0 0.00 0.00 0.00 39 1017.4
20220930151537 71 238 0.9 0.0 0.00 0.00 0.00 41 1017.4
20220930150020 71 101 0.0 0.0 0.00 0.00 0.00 43 1017.5
20220930144516 69 168 0.0 0.0 0.00 0.00 0.00 44 1017.5
20220930143017 67 176 0.9 0.0 0.00 0.00 0.00 48 1017.6
20220930141527 64 228 0.9 0.0 0.00 0.00 0.00 52 1017.5
20220930140011 61 112 0.0 0.0 0.00 0.00 0.00 60 1017.4
20220930134510 59 133 0.0 0.0 0.00 0.00 0.00 69 1017.4
20220930133010 57 123 0.0 0.0 0.00 0.00 0.00 73 1017.3
20220930131509 57 123 0.0 0.0 0.00 0.00 0.00 74 1017.2
20220930130008 56 123 0.0 0.0 0.00 0.00 0.00 72 1017.3
20220930124518 57 123 0.0 0.0 0.00 0.00 0.00 70 1017.2
20220930123004 57 123 0.0 0.0 0.00 0.00 0.00 69 1017.2
20220930121503 58 123 0.0 0.0 0.00 0.00 0.00 67 1017.3
20220930120103 58 123 0.0 0.0 0.00 0.00 0.00 66 1017.1
20220930114601 59 123 0.0 0.0 0.00 0.00 0.00 64 1017.2
20220930113055 60 123 0.0 0.0 0.00 0.00 0.00 62 1017.0
20220930111552 61 123 0.0 0.0 0.00 0.00 0.00 61 1017.1
20220930110049 61 123 0.0 0.0 0.00 0.00 0.00 59 1017.1
20220930110020 61 123 0.0 0.0 0.00 0.00 0.00 59 1017.0
20220930104550 62 123 0.0 0.0 0.00 0.00 0.00 58 1017.1
20220930103045 62 101 0.0 0.0 0.00 0.00 0.00 58 1017.0
20220930101549 63 96 0.0 0.0 0.00 0.00 0.00 58 1016.9
20220930100112 63 95 0.0 0.0 0.00 0.00 0.00 58 1016.9
20220930094556 63 127 0.0 0.0 0.00 0.00 0.00 59 1016.8
20220930093042 64 105 0.0 0.0 0.00 0.00 0.00 59 1016.7
20220930091540 64 105 0.0 0.0 0.00 0.00 0.00 60 1016.7
20220930090108 64 142 0.0 0.0 0.00 0.00 0.00 60 1016.6
20220930084540 64 134 0.0 0.0 0.00 0.00 0.00 61 1016.6
20220930083050 64 148 0.0 0.0 0.00 0.00 0.00 63 1016.8
20220930081537 64 148 0.0 0.0 0.00 0.00 0.00 64 1016.8
20220930080037 64 148 0.0 0.0 0.00 0.00 0.00 63 1016.8
20220930074535 64 147 0.0 0.0 0.00 0.00 0.00 63 1016.7
20220930073036 64 121 0.0 0.0 0.00 0.00 0.00 64 1016.7
20220930071535 64 121 0.0 0.0 0.00 0.00 0.00 64 1016.7
20220930070033 64 121 0.0 0.0 0.00 0.00 0.00 63 1016.7
20220930064606 64 121 0.0 0.0 0.00 0.00 0.00 62 1016.7
20220930063036 65 121 0.0 0.0 0.00 0.00 0.00 62 1016.6
20220930061528 66 121 0.0 0.0 0.00 0.00 0.00 61 1016.7
20220930060031 66 121 0.0 0.0 0.00 0.00 0.00 59 1016.8
20220930054522 67 121 0.0 0.0 0.00 0.00 0.00 57 1016.9
20220930053021 68 121 0.0 0.0 0.00 0.00 0.00 56 1016.9
20220930051532 68 121 0.0 0.0 0.00 0.00 0.00 55 1017.0
20220930050019 69 121 0.0 0.0 0.00 0.00 0.00 53 1017.0
20220930044514 69 121 0.0 0.0 0.00 0.00 0.00 53 1017.0
20220930043034 70 121 0.0 0.0 0.00 0.00 0.00 53 1016.9
20220930041514 70 121 0.0 0.0 0.00 0.00 0.00 52 1016.9
20220930040012 70 121 0.0 0.0 0.00 0.00 0.00 51 1016.8
20220930034518 71 121 0.0 0.0 0.00 0.00 0.00 51 1016.7
20220930033011 71 121 0.0 0.0 0.00 0.00 0.00 50 1016.8
20220930031511 71 99 0.0 0.0 0.00 0.00 0.00 50 1016.7
20220930030016 72 99 0.0 0.0 0.00 0.00 0.00 49 1016.6
20220930024510 73 99 0.0 0.0 0.00 0.00 0.00 48 1016.4
20220930023009 74 99 0.0 0.0 0.00 0.00 0.00 47 1016.3
20220930021509 75 99 0.0 0.0 0.00 0.00 0.00 45 1016.1
20220930020024 76 99 0.0 0.0 0.00 0.00 0.00 44 1016.0
20220930014508 77 99 0.0 0.0 0.00 0.00 0.00 43 1015.9
20220930013008 77 99 0.0 0.0 0.00 0.00 0.00 42 1015.7
20220930011516 77 151 0.0 0.0 0.00 0.00 0.00 42 1015.7
20220930010007 78 151 0.0 0.0 0.00 0.00 0.00 41 1015.6
20220930004519 80 151 0.0 0.0 0.00 0.00 0.00 40 1015.4
20220930003006 82 151 0.0 0.0 0.00 0.00 0.00 38 1015.4
20220930001506 83 151 0.0 0.0 0.00 0.00 0.00 36 1015.3
20220930000006 85 151 0.0 0.0 0.00 0.00 0.00 35 1015.3
20220929234505 87 151 0.0 0.0 0.00 0.00 0.00 33 1015.3
20220929233016 88 151 0.0 0.0 0.00 0.00 0.00 31 1015.2
20220929231506 89 128 0.0 0.0 0.00 0.00 0.00 30 1015.3
20220929230009 90 154 0.9 0.0 0.00 0.00 0.00 29 1015.5
20220929224502 90 231 0.0 0.0 0.00 0.00 0.00 29 1015.5
20220929223101 90 251 0.9 0.0 0.00 0.00 0.00 28 1015.7
20220929221613 91 143 0.9 0.0 0.00 0.00 0.00 28 1015.8
20220929220058 92 219 0.9 0.0 0.00 0.00 0.00 27 1015.9
20220929214555 92 307 0.0 0.0 0.00 0.00 0.00 27 1016.1
20220929213055 92 266 0.9 0.0 0.00 0.00 0.00 27 1016.2
20220929211557 92 122 0.0 0.0 0.00 0.00 0.00 26 1016.4
20220929210055 92 107 0.0 0.0 0.00 0.00 0.00 27 1016.5
20220929204547 92 14 0.0 0.0 0.00 0.00 0.00 27 1016.7
20220929203044 90 109 0.0 0.0 0.00 0.00 0.00 28 1016.9
20220929201541 91 305 0.9 0.0 0.00 0.00 0.00 27 1017.3
20220929200041 90 11 0.9 0.0 0.00 0.00 0.00 27 1017.6
20220929194539 89 338 0.0 0.0 0.00 0.00 0.00 28 1017.9
20220929193035 89 143 0.9 0.0 0.00 0.00 0.00 29 1018.3
20220929191536 89 85 0.0 0.0 0.00 0.00 0.00 30 1018.8
20220929190025 88 13 0.9 0.0 0.00 0.00 0.00 32 1018.9
20220929184523 88 313 0.9 0.0 0.00 0.00 0.00 31 1019.3
20220929183025 87 295 0.9 0.0 0.00 0.00 0.00 32 1019.7
20220929181532 86 114 0.0 0.0 0.00 0.00 0.00 33 1020.1
20220929180012 85 108 0.0 0.0 0.00 0.00 0.00 35 1020.3
20220929174508 84 204 0.9 0.0 0.00 0.00 0.00 36 1020.7
20220929173012 84 282 0.9 0.0 0.00 0.00 0.00 36 1020.9
20220929171510 83 212 0.0 0.0 0.00 0.00 0.00 37 1021.3
20220929170007 82 66 0.9 0.0 0.00 0.00 0.00 37 1021.4
20220929164605 82 61 0.9 0.0 0.00 0.00 0.00 38 1021.6
20220929163058 81 105 0.0 0.0 0.00 0.00 0.00 39 1021.8
20220929161607 80 29 0.9 0.0 0.00 0.00 0.00 41 1022.0
20220929160108 79 343 0.9 0.0 0.00 0.00 0.00 41 1022.1